Dulles, Virginia
Current Conditions -  °F | °C
As of 3:52 PM on Tuesday 25 Nov 2014 (Local Time) from KIAD Reporting Station
Broken Clouds Broken Clouds  
Wind Chill: 56°   Ceiling: 22000
Heat Index: 56°   Visibility: 10mi
Dew Point: 31°   Wind: 0mph
Humidity: 39%   Direction: NA
Pressure: 30.04"   Gusts: NA
Location:  38.94°N, 77.46°W
Report Text: KIAD 252052Z 00000KT 10SM SCT160 BKN220 13/M01 A3004 RMK AO2 SLP170 T01331006 55004
Loading
Personal Weather Stations






























Interactive Weather Map New forecast layout! Learn more

10-Day Weather Forecast

Advertisements
Track Severe Weather on mobile